Weather observations for the past three days for
Grand Prairie, Grand Prairie Municipal Airport
Imperial (Metric)
Date Time (cdt) Wind (mph) Vis. (mi.) Weather Sky Cond. Temperature (ºF) Relative Humidity Wind Chill (°F) Heat Index (°F) Pressure Precipitation (in)
Air Dwpt 6 hour altimeter (in) sea level (mb) 1 hr 3 hr 6 hr
Max. Min.
03 15:15 S 7 10.00 Overcast BKN033 OVC120 89.2 70.7 54% 95 29.9 0.0
03 14:55 S 10 G 16 10.00 Overcast BKN031 OVC120 89.6 70.9 54% 96 29.91 0.0
03 14:35 S 7 10.00 Overcast BKN029 OVC120 88.7 71.4 57% 95 29.91 0.0
03 14:15 S 12 G 22 10.00 Mostly Cloudy SCT027 BKN120 88.7 71.2 56% 95 29.92 0.0
03 13:55 S 9 G 16 10.00 Mostly Cloudy BKN025 BKN032 87.3 71.4 59% 93 29.93 0.0
03 13:35 S 13 G 17 10.00 Mostly Cloudy BKN025 BKN032 86 71.4 62% 92 29.94 0.0
03 13:15 S 14 10.00 Mostly Cloudy BKN023 BKN032 BKN110 86 71.8 63% 92 29.95 0.0
03 12:55 S 15 G 21 10.00 Overcast BKN025 OVC030 85.5 72 86.9 77.2 64% 92 29.95 0.0
03 12:35 S 16 G 21 10.00 Overcast OVC028 86.5 72.3 63% 93 29.95 0.0
03 12:15 S 13 G 21 10.00 Overcast BKN025 BKN032 OVC110 86.5 72.1 62% 93 29.96 0.0
03 11:55 S 12 G 21 10.00 Overcast BKN023 BKN085 OVC110 86.5 72.5 63% 93 29.95 0.0
03 11:35 S 13 G 17 10.00 Overcast BKN023 BKN027 OVC110 85.8 72.7 65% 93 29.96 0.0
03 11:15 S 13 G 17 10.00 Overcast BKN023 BKN027 OVC110 85.1 73 67% 92 29.96 0.0
03 10:55 SE 9 10.00 Overcast BKN021 OVC026 84.2 72.9 69% 91 29.96 0.0
03 10:35 SE 6 10.00 Overcast BKN021 OVC110 83.3 72.9 71% 89 29.96 0.0
03 10:15 SE 8 10.00 Overcast BKN019 OVC110 81.5 72.5 74% 86 29.96 0.0
03 09:55 S 7 10.00 Overcast OVC017 80.8 72.5 76% 85 29.95 0.0
03 09:35 SE 7 10.00 Overcast OVC015 80.4 72 76% 84 29.96 0.0
03 09:15 SE 5 10.00 Overcast OVC017 80.1 71.8 76% 84 29.96 0.0
03 08:55 S 7 10.00 Overcast OVC019 79.7 71.6 76% 83 29.95 0.0
03 08:35 SE 5 10.00 Partly Cloudy SCT019 79.2 71.2 77% 82 29.95 0.0
03 08:15 SE 3 10.00 Fair CLR 78.6 70.9 77% 81 29.95 0.0
03 07:55 SE 3 10.00 Fair CLR 77.9 70.7 79% 80 29.95 0.0
03 07:35 SE 3 10.00 Fair CLR 77.4 70.7 80% 79 29.94 0.0
03 07:15 SE 3 10.00 Fair CLR 77.4 70.3 79% 79 29.94 0.0
03 06:55 Calm 10.00 Fair CLR 77.4 70 80.8 77.4 78% 79 29.93 0.0
03 06:35 SE 3 10.00 Fair CLR 77.5 69.8 77% 79 29.93 0.0
03 06:15 SE 6 10.00 Fair CLR 77.9 69.3 75% 80 29.94 0.0
03 05:55 SE 5 10.00 Fair CLR 77.9 68.9 74% 80 29.93 0.0
03 05:35 SE 5 10.00 Fair CLR 77.9 68.9 74% 80 29.93 0.0
03 05:15 Calm 10.00 Fair CLR 77.9 68.9 74% 80 29.92 0.0
03 04:55 E 3 10.00 Fair CLR 77.9 68.9 74% 80 29.93 0.0
03 04:35 E 3 10.00 Fair CLR 77.7 69.1 75% 80 29.93 0.0
03 04:15 Calm 10.00 Fair CLR 77.9 69.3 75% 80 29.93 0.0
03 03:55 Calm 10.00 Partly Cloudy SCT027 77.9 68.9 74% 80 29.92 0.0
03 03:35 Calm 10.00 Partly Cloudy SCT027 78.3 68.9 73% 81 29.93 0.0
03 03:15 Calm 10.00 Fair CLR 78.4 68.5 72% 81 29.92 0.0
03 02:55 Calm 10.00 Fair CLR 78.8 68.4 70% 81 29.92 0.0
03 02:35 Calm 10.00 Fair CLR 79 68.4 70% 81 29.93 0.0
03 02:15 SE 3 10.00 Fair CLR 79.3 68.5 70% 82 29.93 0.0
03 01:55 SE 3 10.00 Fair CLR 79.3 68.4 69% 82 29.93 0.0
03 01:35 SE 3 10.00 Partly Cloudy SCT028 79.9 68.4 68% 83 29.93 0.0
03 01:15 SE 5 10.00 Fair CLR 80.6 68.2 66% 83 29.94 0.0
03 00:55 E 8 10.00 Fair CLR 81 68.2 94.3 81 65% 84 29.94 0.0
03 00:35 E 7 10.00 Fair CLR 81.5 68 64% 84 29.95 0.0
03 00:15 E 9 10.00 Fair CLR 82 67.6 62% 85 29.95 0.0
02 23:55 E 6 10.00 Fair CLR 82.9 67.5 60% 86 29.94 0.0
02 23:35 E 9 10.00 Fair CLR 83.3 67.5 59% 86 29.94 0.0
02 23:15 E 5 10.00 Fair CLR 83.8 67.3 58% 87 29.94 0.0
02 22:55 E 10 10.00 Fair CLR 84.6 67.1 56% 87 29.94 0.0
02 22:35 E 9 10.00 Fair CLR 85.3 67.3 55% 88 29.94 0.0
02 22:15 E 10 10.00 Fair CLR 86.5 67.1 52% 89 29.94 0.0
02 21:55 E 9 10.00 Fair CLR 87.3 66.4 50% 90 29.93 0.0
02 21:35 E 12 10.00 Fair CLR 87.8 66.4 49% 90 29.92 0.0
02 21:15 SE 10 G 18 10.00 Fair CLR 88.9 66.2 47% 91 29.92 0.0
02 20:55 SE 9 10.00 Fair CLR 90.1 65.1 44% 92 29.91 0.0
02 20:35 SE 8 10.00 Fair CLR 90.5 66.4 45% 93 29.9 0.0
02 20:15 SE 9 10.00 Fair CLR 91.4 66.2 44% 94 29.9 0.0
02 19:55 E 15 10.00 Partly Cloudy SCT090 92.7 65.5 41% 95 29.89 0.0
02 19:35 E 9 10.00 Overcast SCT080 BKN090 OVC120 93.6 64.6 38% 96 29.89 0.0
02 19:15 E 10 10.00 Mostly Cloudy SCT090 BKN110 93.7 65.1 39% 96 29.89 0.0
02 18:55 E 16 G 26 10.00 Partly Cloudy SCT090 94.6 64.8 99.5 93.9 37% 97 29.88 0.0
02 18:35 E 13 G 18 10.00 Fair CLR 98.2 61.2 29% 99 29.87 0.0
02 17:55 E 9 G 16 10.00 Fair CLR 99.3 61.7 29% 101 29.87 0.0
02 17:35 NE 7 10.00 Fair CLR 98.8 61.3 29% 100 29.87 0.0
02 17:15 E 14 10.00 Fair CLR 98.8 61.5 29% 100 29.88 0.0
02 16:55 NE 12 10.00 Fair CLR 99.3 61.9 29% 101 29.88 0.0
02 16:35 E 10 10.00 Fair CLR 99.3 61 28% 100 29.89 0.0
02 16:15 NE 9 G 17 10.00 Fair CLR 98.6 61.7 30% 100 29.9 0.0
02 15:55 E 10 G 17 10.00 Partly Cloudy SCT070 98.1 62.1 31% 99 29.9 0.0
02 15:35 NE 9 G 16 10.00 Fair CLR 98.1 62.2 31% 99 29.91 0.0
02 15:15 E 7 G 17 10.00 Fair CLR 97.7 61 30% 98 29.92 0.0
02 14:55 NE 9 G 20 10.00 Fair CLR 96.8 62.2 32% 98 29.93 0.0
02 14:35 NE 9 10.00 Fair CLR 96.8 62.4 32% 98 29.94 0.0
02 14:15 NE 3 10.00 Fair CLR 95.7 63.3 34% 97 29.95 0.0
02 13:55 N 3 10.00 Fair CLR 95.4 64 36% 97 29.95 0.0
02 13:35 Calm 10.00 Fair CLR 95.7 64.9 36% 98 29.97 0.0
02 13:15 NE 3 10.00 Fair CLR 94.6 64.4 37% 97 29.98 0.0
02 12:55 Calm 10.00 Fair CLR 94.1 65.5 94.1 79.3 39% 97 29.99 0.0
02 12:35 N 6 10.00 Fair CLR 93.4 66.2 41% 96 30 0.0
02 12:15 NE 9 10.00 Fair CLR 91.9 66.4 43% 95 30.01 0.0
02 11:55 NE 6 10.00 Fair CLR 92.1 66.6 43% 95 30.02 0.0
02 11:35 Calm 10.00 Fair CLR 90.3 67.5 47% 94 30.02 0.0
02 11:15 NE 3 10.00 Fair CLR 90.1 67.3 47% 94 30.02 0.0
02 10:55 Calm 10.00 Fair CLR 88.9 66.7 48% 92 30.03 0.0
02 10:35 Calm 10.00 Fair CLR 88 66.9 50% 91 30.03 0.0
02 10:15 E 3 10.00 Fair CLR 86.9 67.5 52% 90 30.03 0.0
02 09:55 Calm 10.00 Fair CLR 85.6 67.5 55% 89 30.03 0.0
02 09:35 Calm 10.00 Fair CLR 85.1 68 57% 88 30.03 0.0
02 09:15 SE 3 10.00 Fair CLR 84.6 67.5 57% 88 30.03 0.0
02 08:55 SE 3 10.00 Fair CLR 83.7 67.6 59% 87 30.02 0.0
02 08:35 SE 6 10.00 Fair CLR 82.2 67.6 61% 85 30.02 0.0
02 08:15 SE 7 10.00 Fair CLR 81.5 67.6 63% 84 30.02 0.0
02 07:55 SE 3 10.00 Fair CLR 80.6 67.6 65% 83 30.01 0.0
02 07:35 E 3 10.00 Fair CLR 79.7 67.5 66% 82 30 0.0
02 07:15 E 3 10.00 Fair CLR 79.3 67.3 67% 82 30 0.0
02 06:55 Calm 10.00 Fair CLR 79.3 67.3 86.2 79.3 67% 82 30 0.0
02 06:35 Calm 10.00 Fair CLR 79.7 67.3 66% 82 30 0.0
02 06:15 Calm 10.00 Fair CLR 79.9 67.1 65% 82 30 0.0
02 05:55 Calm 10.00 Fair CLR 80.4 67.3 64% 83 30 0.0
02 05:35 Calm 10.00 Fair CLR 80.6 67.5 64% 83 30 0.0
02 05:15 SE 3 10.00 Fair CLR 80.8 68 65% 84 30 0.0
02 04:55 Calm 10.00 Fair CLR 81 67.5 64% 84 30 0.0
02 04:35 S 3 10.00 Fair CLR 82 67.3 61% 85 30 0.0
02 04:15 Calm 10.00 Fair CLR 82.2 67.3 61% 85 30 0.0
02 03:55 S 3 10.00 Fair CLR 82.6 67.3 60% 85 30 0.0
02 03:35 S 6 10.00 Fair CLR 82.8 67.3 60% 85 29.99 0.0
02 03:15 S 5 10.00 Fair CLR 83.3 67.1 58% 86 30 0.0
02 02:55 S 3 10.00 Fair CLR 83.8 66.9 57% 86 30 0.0
02 02:35 S 5 10.00 Fair CLR 84.4 66.9 56% 87 30 0.0
02 02:15 S 7 10.00 Fair CLR 84.9 66.7 55% 88 30 0.0
02 01:55 S 6 10.00 Fair CLR 85.5 66.7 54% 88 30 0.0
02 01:35 SE 8 G 16 10.00 Fair CLR 86 66.9 53% 89 30 0.0
02 01:15 SE 10 G 16 10.00 Partly Cloudy SCT120 86.2 66.9 53% 89 29.99 0.0
02 00:55 SE 9 10.00 Mostly Cloudy BKN120 86 67.3 95.9 86 54% 89 29.99 0.0
02 00:35 SE 10 10.00 Fair CLR 86.2 67.6 54% 89 29.99 0.0
02 00:15 SE 9 10.00 Fair CLR 86.5 67.3 53% 90 29.99 0.0
01 23:55 SE 8 10.00 Fair CLR 87.3 66.7 51% 90 29.99 0.0
01 23:35 SE 10 10.00 Fair CLR 87.8 66.4 49% 90 29.99 0.0
01 23:15 SE 9 10.00 Fair CLR 89.1 65.3 45% 91 29.98 0.0
01 22:55 SE 5 10.00 Fair CLR 89.8 64 42% 91 29.98 0.0
01 22:35 SE 5 10.00 Partly Cloudy SCT090 90.5 63.7 41% 92 29.98 0.0
01 22:15 SE 5 10.00 Partly Cloudy SCT090 90.9 63.9 41% 92 29.97 0.0
01 21:55 SE 5 10.00 Fair CLR 91.4 63.5 40% 93 29.96 0.0
01 21:35 SE 5 10.00 Fair CLR 91.6 63.7 40% 93 29.95 0.0
01 21:15 SE 5 10.00 Fair CLR 92.3 63.5 38% 94 29.95 0.0
01 20:55 SE 3 10.00 Fair CLR 92.3 63 38% 93 29.94 0.0
01 20:35 SE 3 10.00 Fair CLR 93.2 62.4 36% 94 29.93 0.0
01 20:15 E 3 10.00 Fair CLR 93.7 61.7 34% 94 29.93 0.0
01 19:55 E 7 10.00 Fair CLR 94.5 62.1 34% 95 29.92 0.0
01 19:35 E 6 10.00 Fair CLR 95.2 62.4 34% 96 29.92 0.0
01 19:15 E 8 10.00 Fair CLR 95.5 62.6 34% 97 29.93 0.0
01 18:55 E 7 10.00 Fair CLR 95.9 62.6 100.4 94.6 33% 97 29.93 0.0
01 18:35 E 7 10.00 Fair CLR 96.1 62.6 33% 97 29.93 0.0
01 18:15 E 7 10.00 Fair CLR 97 61.9 31% 98 29.93 0.0
01 17:55 E 9 10.00 Mostly Cloudy SCT080 SCT090 BKN120 97 61.7 31% 98 29.94 0.0
01 17:35 E 9 10.00 Mostly Cloudy BKN075 BKN100 BKN120 99.5 61.7 29% 101 29.93 0.0
01 17:15 E 8 10.00 Partly Cloudy SCT075 99.5 61.9 29% 101 29.93 0.0
01 16:55 S 8 10.00 Partly Cloudy SCT120 99.1 61.9 29% 100 29.94 0.0
01 16:35 SE 6 G 10 10.00 Overcast OVC120 99.1 61.5 29% 100 29.95 0.0
01 16:15 E 9 10.00 Mostly Cloudy SCT075 BKN120 99.1 61.9 29% 100 29.95 0.0
01 15:55 E 3 10.00 Mostly Cloudy SCT075 BKN110 100 60.8 27% 101 29.95 0.0
01 15:35 NE 7 10.00 Mostly Cloudy SCT075 BKN110 97 61.3 31% 98 29.96 0.0
01 15:15 NE 8 10.00 Partly Cloudy SCT075 SCT100 97 62.1 32% 98 29.97 0.0
01 14:55 E 6 10.00 Partly Cloudy SCT110 97.7 61.9 31% 99 29.97 0.0
01 14:35 NE 3 10.00 Partly Cloudy SCT070 SCT110 96.6 62.6 33% 98 29.98 0.0
01 14:15 E 8 10.00 Partly Cloudy SCT060 SCT080 SCT110 97.5 62.1 31% 99 29.99 0.0
01 13:55 E 9 10.00 Overcast OVC060 98.1 63.7 32% 100 30 0.0
01 13:35 NE 9 10.00 Overcast OVC060 97 63.9 34% 99 30.01 0.0
01 13:15 SE 7 10.00 Mostly Cloudy BKN060 96.4 63.9 34% 99 30.02 0.0
01 12:55 NE 3 10.00 Partly Cloudy SCT060 SCT070 95.4 64 95.4 79.7 36% 97 30.03 0.0
01 12:35 SE 8 10.00 Partly Cloudy SCT060 94.6 64.2 37% 97 30.04 0.0
01 12:15 W 3 10.00 Fair CLR 94.1 64.4 38% 96 30.05 0.0
01 11:55 SW 6 10.00 Fair CLR 93 65.1 40% 95 30.05 0.0
01 11:35 S 6 10.00 Fair CLR 93 65.5 40% 96 30.06 0.0
01 11:15 Calm 10.00 Fair CLR 92.1 66.6 43% 95 30.06 0.0
01 10:55 S 6 10.00 Fair CLR 91.6 66.6 44% 95 30.06 0.0
01 10:35 SW 3 10.00 Fair CLR 90.5 66.7 46% 94 30.06 0.0
01 10:15 S 3 10.00 Fair CLR 89.6 68 49% 93 30.06 0.0
01 09:55 S 3 10.00 Fair CLR 88.3 68.5 52% 92 30.06 0.0
01 09:35 S 5 10.00 Fair CLR 86.5 69.1 56% 91 30.06 0.0
01 09:15 S 5 10.00 Fair CLR 86.2 69.3 57% 90 30.06 0.0
01 08:55 S 6 10.00 Partly Cloudy SCT120 84.9 69.3 60% 89 30.06 0.0
01 08:35 S 6 10.00 Partly Cloudy SCT120 83.7 69.3 62% 87 30.06 0.0
01 08:15 Calm 10.00 Fair CLR 81.9 69.1 65% 85 30.06 0.0
01 07:55 S 3 10.00 Partly Cloudy SCT120 81.1 68.9 66% 84 30.05 0.0
01 07:35 Calm 10.00 Partly Cloudy SCT120 80.1 68.5 68% 83 30.05 0.0
01 07:15 Calm 10.00 Partly Cloudy SCT110 79.9 68.2 68% 82 30.04 0.0
01 06:55 Calm 10.00 Partly Cloudy SCT110 81 67.5 87.4 80.6 64% 84 30.03 0.0
01 06:35 Calm 10.00 Fair CLR 81.5 67.5 63% 84 30.03 0.0
01 06:15 Calm 10.00 Fair CLR 80.6 66.9 63% 83 30.03 0.0
01 05:55 Calm 10.00 Fair CLR 80.8 66.4 62% 83 30.02 0.0
01 05:35 Calm 10.00 Fair CLR 81.9 66.4 60% 84 30.02 0.0
01 05:15 Calm 10.00 Fair CLR 82.4 66.6 59% 85 30.02 0.0
01 04:55 S 3 10.00 Fair CLR 82.9 66.6 58% 85 30.02 0.0
01 04:35 S 3 10.00 Fair CLR 83.5 66.4 56% 86 30.02 0.0
01 04:15 S 5 10.00 Fair CLR 84.2 66.4 55% 87 30.02 0.0
01 03:55 SW 6 10.00 Partly Cloudy SCT100 84.7 66.6 55% 87 30.02 0.0
01 03:35 S 7 10.00 Partly Cloudy SCT100 85.1 66.4 54% 88 30.02 0.0
01 03:15 S 6 10.00 Fair CLR 84.9 65.5 52% 87 30.02 0.0
01 02:55 S 6 10.00 Fair CLR 85.1 64.6 50% 87 30.02 0.0
01 02:35 S 5 10.00 Partly Cloudy SCT090 85.5 64 49% 87 30.02 0.0
01 02:15 S 6 10.00 Partly Cloudy SCT090 86.2 63.7 47% 87 30.01 0.0
01 01:55 SE 5 10.00 Partly Cloudy SCT080 86.4 63.5 47% 87 30.01 0.0
01 01:35 S 5 10.00 Partly Cloudy SCT080 86.9 62.6 44% 88 30 0.0
01 01:15 SE 6 10.00 Fair CLR 87.1 61.2 42% 87 30 0.0
01 00:55 SE 5 10.00 Fair CLR 87.4 60.4 98.1 85.6 40% 87 29.99 0.0
01 00:35 SE 5 10.00 Fair CLR 86.9 59.2 39% 86 29.99 0.0
01 00:15 SE 3 10.00 Fair CLR 86.5 59.2 40% 86 29.98 0.0
31 23:55 E 3 10.00 Fair CLR 86.2 59.4 40% 86 29.98 0.0
31 23:35 Calm 10.00 Fair CLR 87.8 58.1 37% 87 29.98 0.0
31 23:15 Calm 10.00 Fair CLR 88.3 57.9 36% 87 29.98 0.0
31 22:55 Calm 10.00 Fair CLR 88 57.4 36% 87 29.98 0.0
31 22:35 Calm 10.00 Fair CLR 88.7 56.8 34% 87 29.98 0.0
31 22:15 Calm 10.00 Fair CLR 90.5 56.1 31% 89 29.98 0.0
31 21:55 Calm 10.00 Fair CLR 90 55.6 31% 88 29.97 0.0
31 21:35 SE 3 10.00 Fair CLR 91.4 54.9 29% 89 29.97 0.0
31 21:15 SE 3 10.00 Fair CLR 91.9 55.2 29% 90 29.96 0.0
31 20:55 SE 3 10.00 Fair CLR 92.7 55.6 29% 91 29.95 0.0
31 20:35 SE 5 10.00 Fair CLR 93.4 56.3 29% 92 29.95 0.0
31 20:15 SE 3 10.00 Fair CLR 94.3 56.1 28% 93 29.95 0.0
31 19:55 SE 7 10.00 Fair CLR 95.9 55.8 26% 94 29.94 0.0
31 19:35 SE 8 10.00 Fair CLR 96.6 55.4 25% 95 29.94 0.0
31 19:15 S 8 10.00 Fair CLR 97.5 54.5 24% 96 29.94 0.0
31 18:35 SE 8 10.00 Fair CLR 98.6 54.9 23% 97 29.94 0.0
31 18:15 SE 7 G 16 10.00 Fair CLR 98.6 55 23% 97 29.94 0.0
31 17:55 SE 8 10.00 Fair CLR 99.5 55.6 23% 98 29.95 0.0
31 17:35 SE 10 10.00 Partly Cloudy SCT110 97.7 55.6 24% 96 29.95 0.0
31 17:15 S 9 10.00 Partly Cloudy SCT110 98.4 55.6 24% 97 29.95 0.0
31 16:55 SE 10 10.00 Partly Cloudy SCT110 100.9 55.6 22% 100 29.95 0.0
31 16:35 SE 8 G 17 10.00 Partly Cloudy SCT100 100.9 56.1 23% 100 29.96 0.0
31 16:15 S 6 G 13 10.00 Fair CLR 100.2 55.4 22% 99 29.97 0.0
31 15:55 SE 10 G 20 10.00 Partly Cloudy SCT100 99.9 57.4 24% 99 29.97 0.0
Date Time (cdt) Wind (mph) Vis. (mi.) Weather Sky Cond. Air Dwpt Max. Min. Relative Humidity Wind Chill (°F) Heat Index (°F) altimeter (in) sea level (mb) 1 hr 3 hr 6 hr
6 hour
Temperature (ºF) Pressure Precipitation (in)